Time;durP1;ratioP1;P1;durP2;ratioP2;P2;SDS_P1;SDS_P2;PMS_P1;PMS_P2;Temp;Humidity;BMP_temperature;BMP_pressure;BME280_temperature;BME280_humidity;BME280_pressure;Samples;Min_cycle;Max_cycle;Signal;HPM_P1;HPM_P2
2022/09/06 00:00:56;;;;;;;4.27;2.20;;;;;;;9.22;100.00;100663.66;1632610;87;21045;-58
2022/09/06 00:03:23;;;;;;;3.13;1.80;;;;;;;9.42;100.00;100658.91;1632294;87;21586;-63
2022/09/06 00:05:50;;;;;;;4.63;2.20;;;;;;;9.28;100.00;100668.21;1631965;87;21804;-58
2022/09/06 00:08:17;;;;;;;4.37;2.45;;;;;;;9.30;100.00;100661.04;1632270;87;22242;-59
2022/09/06 00:10:47;;;;;;;5.12;2.27;;;;;;;9.34;100.00;100661.03;1632426;87;21099;-58
2022/09/06 00:13:15;;;;;;;4.67;2.70;;;;;;;9.19;100.00;100657.47;1631966;87;21076;-64
2022/09/06 00:15:45;;;;;;;5.10;2.80;;;;;;;9.21;100.00;100659.44;1631761;87;20954;-63
2022/09/06 00:18:12;;;;;;;5.42;2.65;;;;;;;9.18;100.00;100657.16;1632229;87;21147;-58
2022/09/06 00:20:40;;;;;;;5.30;2.90;;;;;;;9.06;100.00;100653.27;1632297;87;21040;-57
2022/09/06 00:23:07;;;;;;;4.85;2.77;;;;;;;9.10;100.00;100654.08;1632416;87;21093;-58
2022/09/06 00:25:36;;;;;;;4.62;2.50;;;;;;;9.15;100.00;100653.58;1632277;87;21052;-62
2022/09/06 00:28:04;;;;;;;4.62;2.42;;;;;;;9.12;100.00;100660.41;1631247;87;21021;-60
2022/09/06 00:30:32;;;;;;;3.72;1.90;;;;;;;9.16;100.00;100657.30;1632601;87;21493;-58
2022/09/06 00:33:00;;;;;;;4.80;2.42;;;;;;;9.11;100.00;100652.28;1632166;87;21507;-58
2022/09/06 00:35:28;;;;;;;6.40;2.95;;;;;;;9.09;100.00;100652.92;1632028;87;21073;-58
2022/09/06 00:37:57;;;;;;;4.62;2.60;;;;;;;9.01;100.00;100653.24;1631826;87;21127;-64
2022/09/06 00:40:25;;;;;;;4.87;2.45;;;;;;;9.07;100.00;100650.98;1632700;87;21178;-58
2022/09/06 00:42:52;;;;;;;4.92;2.22;;;;;;;8.98;100.00;100654.09;1632302;87;21321;-58
2022/09/06 00:45:19;;;;;;;4.28;2.00;;;;;;;8.94;100.00;100651.00;1632408;87;21021;-58
2022/09/06 00:47:47;;;;;;;4.50;2.33;;;;;;;8.88;100.00;100655.53;1632085;87;21092;-65
2022/09/06 00:50:16;;;;;;;5.15;2.35;;;;;;;8.82;100.00;100653.57;1631625;87;21231;-64
2022/09/06 00:52:44;;;;;;;5.95;2.80;;;;;;;8.87;100.00;100645.31;1632315;87;22018;-58
2022/09/06 00:55:11;;;;;;;5.60;2.80;;;;;;;8.84;100.00;100651.63;1632039;87;21324;-58
2022/09/06 00:57:40;;;;;;;6.35;2.67;;;;;;;8.81;100.00;100654.55;1632295;87;21798;-58
2022/09/06 01:00:08;;;;;;;4.58;2.75;;;;;;;8.78;100.00;100652.27;1631755;87;21029;-59
2022/09/06 01:02:36;;;;;;;5.77;2.60;;;;;;;8.71;100.00;100649.52;1632195;87;21024;-58
2022/09/06 01:05:05;;;;;;;6.47;2.80;;;;;;;8.70;100.00;100652.27;1632165;87;22153;-58
2022/09/06 01:07:47;;;;;;;5.15;3.47;;;;;;;8.70;100.00;100652.27;1632195;87;21839;-58
2022/09/06 01:10:34;;;;;;;;;;;;;;;8.72;100.00;100650.33;1634488;87;21106;-64
2022/09/06 01:13:43;;;;;;;4.75;2.67;;;;;;;8.60;100.00;100652.89;1639491;87;20217;-58
2022/09/06 01:16:16;;;;;;;4.55;2.67;;;;;;;8.51;100.00;100647.69;1632037;87;21468;-58
2022/09/06 01:18:54;;;;;;;5.50;2.67;;;;;;;8.43;100.00;100652.88;1639621;87;21525;-58
2022/09/06 01:21:38;;;;;;;5.62;2.70;;;;;;;8.42;100.00;100651.74;1662702;86;21943;-59
2022/09/06 01:24:32;;;;;;;8.65;2.70;;;;;;;8.43;100.00;100652.06;1662423;86;21299;-58
2022/09/06 01:27:39;;;;;;;7.42;2.80;;;;;;;8.36;100.00;100657.04;1662686;86;21418;-64
2022/09/06 01:30:09;;;;;;;4.20;2.92;;;;;;;8.35;100.00;100655.42;1662247;86;21071;-59
2022/09/06 01:33:11;;;;;;;4.08;2.50;;;;;;;8.35;100.00;100658.02;1661820;86;20951;-64
2022/09/06 01:35:46;;;;;;;6.35;2.50;;;;;;;8.33;100.00;100659.14;1662452;84;20999;-58
2022/09/06 01:38:13;;;;;;;5.53;3.25;;;;;;;8.38;100.00;100660.34;1661844;86;21087;-64
2022/09/06 01:40:41;;;;;;;8.93;3.60;;;;;;;8.21;100.00;100656.02;1662553;86;21562;-58
2022/09/06 01:43:10;;;;;;;5.90;3.10;;;;;;;8.25;100.00;100662.04;1662115;86;20943;-64
2022/09/06 01:46:16;;;;;;;5.22;2.80;;;;;;;8.21;100.00;100665.92;1662636;86;21517;-59
2022/09/06 01:49:20;;;;;;;3.92;2.45;;;;;;;8.28;100.00;100662.22;1658158;86;21917;-59
2022/09/06 01:52:17;;;;;;;6.00;2.65;;;;;;;8.34;100.00;100667.28;1662013;86;21133;-58
2022/09/06 01:54:56;;;;;;;5.58;2.62;;;;;;;8.33;100.00;100667.73;1662179;86;21015;-59
2022/09/06 01:58:06;;;;;;;4.87;2.35;;;;;;;8.34;100.00;100668.09;1662464;86;21103;-65
2022/09/06 02:00:38;;;;;;;3.98;2.37;;;;;;;8.34;100.00;100664.69;1662647;86;21030;-58
2022/09/06 02:03:28;;;;;;;5.53;2.90;;;;;;;8.37;100.00;100665.64;1661541;86;21315;-60
2022/09/06 02:06:06;;;;;;;4.97;2.60;;;;;;;8.39;100.00;100664.55;1661482;86;20963;-59
2022/09/06 02:08:41;;;;;;;4.20;2.05;;;;;;;8.46;100.00;100665.55;1661987;85;20967;-60
2022/09/06 02:11:08;;;;;;;3.85;2.05;;;;;;;8.47;100.00;100665.06;1662506;86;21481;-58
2022/09/06 02:13:48;;;;;;;4.10;2.05;;;;;;;8.44;100.00;100668.78;1662013;86;21011;-60
2022/09/06 02:16:18;;;;;;;3.77;2.22;;;;;;;8.36;100.00;100663.53;1661740;86;21220;-58
2022/09/06 02:19:09;;;;;;;4.85;2.52;;;;;;;8.32;100.00;100667.42;1662315;86;21078;-57
2022/09/06 02:21:39;;;;;;;3.67;2.37;;;;;;;8.32;100.00;100671.32;1662099;86;21035;-58
2022/09/06 02:24:09;;;;;;;4.10;2.55;;;;;;;8.32;100.00;100667.91;1661836;86;21033;-59
2022/09/06 02:26:39;;;;;;;5.22;2.52;;;;;;;8.23;100.00;100668.38;1662590;86;21141;-58
2022/09/06 02:29:06;;;;;;;4.60;2.05;;;;;;;8.26;100.00;100664.17;1641792;86;21819;-59
2022/09/06 02:31:50;;;;;;;4.53;2.70;;;;;;;8.25;100.00;100672.91;1661966;86;21032;-58
2022/09/06 02:34:17;;;;;;;3.85;2.35;;;;;;;8.24;100.00;100668.70;1662526;86;21565;-58
2022/09/06 02:36:44;;;;;;;3.52;2.33;;;;;;;8.25;100.00;100676.81;1662429;86;21015;-58
2022/09/06 02:39:12;;;;;;;5.70;2.50;;;;;;;8.23;100.00;100674.87;1662090;86;21153;-58
2022/09/06 02:41:42;;;;;;;4.47;2.20;;;;;;;8.10;100.00;100676.59;1661781;86;21293;-59
2022/09/06 02:44:10;;;;;;;3.85;2.55;;;;;;;8.17;100.00;100676.78;1662519;86;21058;-59
2022/09/06 02:46:37;;;;;;;4.35;2.72;;;;;;;8.17;100.00;100675.48;1662364;86;21098;-60
2022/09/06 02:49:06;;;;;;;6.50;2.33;;;;;;;8.14;100.00;100678.39;1662014;86;21028;-59
2022/09/06 02:51:37;;;;;;;3.87;2.00;;;;;;;8.08;100.00;100679.84;1662085;86;21898;-59
2022/09/06 02:54:05;;;;;;;;;;;;;;;8.06;100.00;100681.77;1665075;86;21228;-59
2022/09/06 02:56:35;;;;;;;6.20;3.08;;;;;;;8.05;100.00;100684.86;1662542;86;20158;-60
2022/09/06 02:59:04;;;;;;;4.40;2.33;;;;;;;8.08;100.00;100682.94;1661919;86;21453;-60
2022/09/06 03:01:32;;;;;;;5.45;2.33;;;;;;;8.02;100.00;100686.46;1661718;86;21090;-60
2022/09/06 03:03:59;;;;;;;5.42;3.50;;;;;;;7.93;100.00;100684.81;1662352;86;21825;-60
2022/09/06 03:06:26;;;;;;;6.25;5.22;;;;;;;7.95;100.00;100688.05;1667241;85;21889;-60
2022/09/06 03:08:54;;;;;;;7.05;5.12;;;;;;;7.97;100.00;100678.34;1667573;85;20915;-67
2022/09/06 03:11:21;;;;;;;9.15;5.17;;;;;;;7.93;100.00;100684.81;1667525;85;21031;-59
2022/09/06 03:13:51;;;;;;;5.40;3.72;;;;;;;7.82;100.00;100688.97;1667567;85;21015;-62
2022/09/06 03:16:19;;;;;;;3.83;2.72;;;;;;;7.77;100.00;100689.92;1667721;85;21258;-59
2022/09/06 03:18:46;;;;;;;4.58;2.80;;;;;;;7.78;100.00;100701.92;1667685;85;21165;-59
2022/09/06 03:21:14;;;;;;;4.10;2.33;;;;;;;7.84;100.00;100698.73;1667084;85;20951;-61
2022/09/06 03:23:44;;;;;;;6.28;2.33;;;;;;;7.93;100.00;100700.88;1650967;86;21183;-60
2022/09/06 03:26:12;;;;;;;3.52;2.00;;;;;;;8.03;100.00;100707.58;1651619;86;21114;-60
2022/09/06 03:28:39;;;;;;;5.25;2.60;;;;;;;8.34;100.00;100705.76;1651441;86;21035;-59
2022/09/06 03:31:07;;;;;;;4.58;2.45;;;;;;;8.96;100.00;100703.63;1650874;86;21219;-64
2022/09/06 03:33:36;;;;;;;4.17;2.30;;;;;;;9.85;100.00;100701.94;1651003;86;21097;-62
2022/09/06 03:36:03;;;;;;;4.30;2.03;;;;;;;10.98;100.00;100706.75;1651471;86;21319;-59
2022/09/06 03:38:31;;;;;;;4.50;2.10;;;;;;;12.04;100.00;100699.73;1635522;87;22577;-57
2022/09/06 03:40:58;;;;;;;3.50;2.10;;;;;;;13.14;100.00;100700.31;1636185;87;21855;-57
2022/09/06 03:43:26;;;;;;;6.03;2.40;;;;;;;14.17;100.00;100690.57;1635021;87;22324;-65
2022/09/06 03:45:56;;;;;;;3.83;2.00;;;;;;;15.20;100.00;100678.09;1635287;87;22804;-57
2022/09/06 03:48:24;;;;;;;3.40;2.37;;;;;;;16.05;100.00;100677.62;1636147;87;21081;-58
2022/09/06 03:50:53;;;;;;;4.17;2.53;;;;;;;16.96;100.00;100664.66;1636530;87;21036;-59
2022/09/06 03:53:21;;;;;;;3.90;2.30;;;;;;;17.83;100.00;100660.19;1635444;87;21032;-63
2022/09/06 03:55:50;;;;;;;3.33;2.10;;;;;;;18.53;100.00;100653.61;1635475;87;21333;-58
2022/09/06 03:58:18;;;;;;;4.50;2.40;;;;;;;19.28;100.00;100654.34;1635326;87;21531;-59
2022/09/06 04:00:45;;;;;;;3.63;2.23;;;;;;;19.88;100.00;100662.78;1635364;87;21072;-57
2022/09/06 04:03:12;;;;;;;3.70;2.27;;;;;;;20.58;100.00;100659.08;1634867;87;21047;-60
2022/09/06 04:05:42;;;;;;;4.67;2.50;;;;;;;21.22;100.00;100655.30;1639060;87;21485;-64
2022/09/06 04:08:09;;;;;;;3.60;2.37;;;;;;;21.65;89.32;100657.22;1665088;86;21301;-58
2022/09/06 04:10:38;;;;;;;6.10;3.10;;;;;;;22.10;77.82;100654.28;1665418;86;21558;-58
2022/09/06 04:13:07;;;;;;;3.67;2.60;;;;;;;22.39;71.75;100655.41;1664635;86;21075;-59
2022/09/06 04:15:35;;;;;;;3.87;2.40;;;;;;;22.55;67.01;100661.13;1665043;86;21352;-64
2022/09/06 04:18:04;;;;;;;4.00;2.67;;;;;;;22.90;63.23;100661.13;1665288;86;21154;-58
2022/09/06 04:20:31;;;;;;;4.20;3.13;;;;;;;23.22;61.55;100661.63;1665329;86;21497;-58
2022/09/06 04:22:59;;;;;;;4.67;2.70;;;;;;;23.58;59.84;100660.50;1665257;86;21564;-61
2022/09/06 04:25:26;;;;;;;3.72;2.58;;;;;;;23.91;56.07;100665.45;1664813;86;21026;-59
2022/09/06 04:27:55;;;;;;;5.12;2.77;;;;;;;24.19;53.22;100668.18;1664724;86;20978;-65
2022/09/06 04:30:23;;;;;;;4.20;2.47;;;;;;;24.41;52.85;100671.98;1665444;86;21356;-57
2022/09/06 04:32:50;;;;;;;5.90;2.85;;;;;;;24.57;51.41;100674.66;1665090;86;21232;-57
2022/09/06 04:35:18;;;;;;;3.77;2.65;;;;;;;24.79;51.11;100674.40;1664587;86;20931;-58
2022/09/06 04:37:45;;;;;;;3.62;2.37;;;;;;;25.12;49.19;100669.86;1665075;86;21453;-58
2022/09/06 04:40:13;;;;;;;4.05;2.67;;;;;;;25.51;48.38;100671.89;1664589;86;20963;-65
2022/09/06 04:42:41;;;;;;;4.17;2.67;;;;;;;25.86;48.36;100666.16;1665331;86;21077;-58
2022/09/06 04:45:10;;;;;;;3.55;3.00;;;;;;;26.34;45.84;100661.88;1664739;86;21182;-62
2022/09/06 04:47:39;;;;;;;4.05;2.62;;;;;;;26.54;45.50;100658.81;1665133;86;21073;-57
2022/09/06 04:50:07;;;;;;;5.22;3.67;;;;;;;26.81;45.48;100666.34;1665126;86;21141;-59
2022/09/06 04:52:35;;;;;;;5.10;2.80;;;;;;;27.05;45.39;100670.38;1665062;86;21100;-58
2022/09/06 04:55:04;;;;;;;4.15;2.70;;;;;;;27.19;43.96;100664.66;1664313;86;21915;-59
2022/09/06 04:57:31;;;;;;;2.90;2.40;;;;;;;27.09;43.32;100668.76;1665230;86;21261;-58
2022/09/06 04:59:58;;;;;;;3.08;2.60;;;;;;;26.98;42.90;100669.39;1665177;86;21027;-59
2022/09/06 05:02:26;;;;;;;3.87;2.17;;;;;;;26.72;42.78;100670.16;1665124;86;21077;-59
2022/09/06 05:04:54;;;;;;;4.15;2.67;;;;;;;26.89;43.97;100667.85;1664228;86;21546;-67
2022/09/06 05:07:21;;;;;;;4.45;2.37;;;;;;;27.28;44.27;100668.31;1651552;86;22160;-59
2022/09/06 05:09:49;;;;;;;3.65;2.47;;;;;;;27.64;43.28;100666.00;1651491;86;21373;-58
2022/09/06 05:12:17;;;;;;;5.70;2.50;;;;;;;27.83;41.52;100663.38;1651535;86;20920;-69
2022/09/06 05:14:44;;;;;;;4.67;2.95;;;;;;;27.46;41.85;100664.08;1651198;86;21040;-68
2022/09/06 05:17:13;;;;;;;4.67;2.80;;;;;;;27.04;41.79;100666.91;1651229;86;21078;-58
2022/09/06 05:19:40;;;;;;;4.60;3.67;;;;;;;26.91;42.74;100680.42;1651772;86;21024;-58
2022/09/06 05:22:11;;;;;;;5.58;3.50;;;;;;;26.79;43.01;100674.66;1651605;86;21293;-58
2022/09/06 05:24:38;;;;;;;5.95;3.58;;;;;;;26.74;43.10;100669.33;1650823;86;20968;-59
2022/09/06 05:27:06;;;;;;;4.12;3.40;;;;;;;26.47;43.51;100666.34;1651354;86;21567;-59
2022/09/06 05:29:34;;;;;;;5.37;3.77;;;;;;;26.20;43.93;100670.24;1652452;86;21002;-57
2022/09/06 05:32:02;;;;;;;4.87;3.50;;;;;;;25.53;44.48;100675.07;1651771;86;21422;-58
2022/09/06 05:34:29;;;;;;;5.28;3.33;;;;;;;24.84;45.54;100678.39;1651383;86;21848;-66
2022/09/06 05:36:56;;;;;;;5.90;3.58;;;;;;;24.18;47.44;100675.91;1651640;86;21020;-57
2022/09/06 05:39:24;;;;;;;4.22;3.08;;;;;;;23.65;50.06;100679.16;1652034;86;21053;-57
2022/09/06 05:41:51;;;;;;;5.07;3.40;;;;;;;23.20;52.21;100680.52;1651857;86;21032;-58
2022/09/06 05:44:19;;;;;;;5.23;3.37;;;;;;;22.80;55.50;100688.95;1652328;86;21025;-58
2022/09/06 05:46:46;;;;;;;4.90;3.47;;;;;;;22.32;56.82;100680.84;1651915;86;21784;-66
2022/09/06 05:49:13;;;;;;;5.07;3.13;;;;;;;21.92;59.46;100681.16;1651901;86;21003;-57
2022/09/06 05:51:42;;;;;;;4.80;3.13;;;;;;;21.51;61.95;100679.31;1635638;87;21421;-57
2022/09/06 05:54:12;;;;;;;4.77;2.93;;;;;;;21.23;64.87;100678.91;1635346;87;21024;-60
2022/09/06 05:56:41;;;;;;;4.63;2.80;;;;;;;21.06;67.74;100682.08;1634779;87;21048;-60
2022/09/06 05:59:09;;;;;;;5.03;2.80;;;;;;;21.18;68.98;100680.16;1634857;87;21545;-59
2022/09/06 06:01:39;;;;;;;5.03;2.93;;;;;;;21.13;71.56;100684.84;1635586;87;21023;-60
2022/09/06 06:04:07;;;;;;;4.50;2.40;;;;;;;21.01;71.63;100681.48;1634704;87;21527;-60
2022/09/06 06:06:35;;;;;;;5.83;3.00;;;;;;;20.91;73.90;100689.30;1633067;87;20893;-60
2022/09/06 06:09:03;;;;;;;4.70;3.00;;;;;;;20.78;75.32;100690.92;1631522;87;21091;-60
2022/09/06 06:11:33;;;;;;;5.63;3.57;;;;;;;20.67;77.79;100693.11;1631870;87;21052;-59
2022/09/06 06:14:02;;;;;;;5.37;3.23;;;;;;;20.55;78.70;100693.18;1632345;87;21080;-56
2022/09/06 06:16:29;;;;;;;5.07;3.60;;;;;;;20.44;82.93;100694.81;1631779;87;21033;-57
2022/09/06 06:18:57;;;;;;;5.80;3.63;;;;;;;20.44;80.41;100701.42;1631810;87;21184;-58
2022/09/06 06:21:26;;;;;;;5.07;3.57;;;;;;;20.52;83.74;100702.39;1632398;87;22064;-56
2022/09/06 06:23:57;;;;;;;5.87;3.73;;;;;;;20.79;85.01;100703.12;1632258;87;21271;-57
2022/09/06 06:26:25;;;;;;;5.83;4.42;;;;;;;21.07;78.89;100703.06;1631830;87;21100;-56
2022/09/06 06:28:52;;;;;;;8.75;4.58;;;;;;;21.51;74.93;100701.06;1632091;87;21036;-65
2022/09/06 06:31:22;;;;;;;6.83;5.03;;;;;;;22.16;70.45;100702.98;1632309;87;21554;-57
2022/09/06 06:33:50;;;;;;;7.50;5.53;;;;;;;22.96;64.25;100700.03;1632611;87;21531;-57
2022/09/06 06:36:22;;;;;;;6.55;4.97;;;;;;;23.77;60.93;100699.73;1631639;87;21214;-58
2022/09/06 06:38:52;;;;;;;7.10;6.10;;;;;;;24.50;55.66;100705.02;1631827;87;21549;-60
2022/09/06 06:41:22;;;;;;;8.53;6.58;;;;;;;24.93;51.91;100708.27;1632087;87;21381;-58
2022/09/06 06:43:54;;;;;;;8.10;5.92;;;;;;;25.18;50.59;100707.98;1632248;87;21589;-58
2022/09/06 06:46:23;;;;;;;7.67;4.97;;;;;;;25.50;48.93;100707.67;1631077;87;20985;-57
2022/09/06 06:48:50;;;;;;;8.05;4.65;;;;;;;25.89;47.35;100707.81;1631897;87;21264;-56
2022/09/06 06:51:18;;;;;;;4.83;3.83;;;;;;;26.25;45.17;100708.16;1632111;87;21565;-56
2022/09/06 06:53:49;;;;;;;5.03;3.33;;;;;;;26.57;44.46;100706.39;1632490;87;21040;-64
2022/09/06 06:56:19;;;;;;;3.27;2.22;;;;;;;26.70;42.13;100703.06;1632173;87;21076;-56
2022/09/06 06:58:48;;;;;;;3.17;2.20;;;;;;;26.43;41.05;100709.64;1631966;87;21631;-63
2022/09/06 07:01:16;;;;;;;3.40;2.10;;;;;;;25.94;40.54;100701.64;1632007;87;21184;-58
2022/09/06 07:03:43;;;;;;;4.25;2.27;;;;;;;25.21;41.56;100712.25;1631915;87;21103;-64
2022/09/06 07:06:10;;;;;;;3.05;2.05;;;;;;;24.81;42.65;100711.70;1635113;87;21017;-56
2022/09/06 07:08:40;;;;;;;3.12;1.65;;;;;;;24.81;42.65;100711.70;1643787;87;21942;-57
2022/09/06 07:11:10;;;;;;;3.85;1.90;;;;;;;24.68;43.00;100715.72;1664541;86;21022;-56
2022/09/06 07:13:37;;;;;;;2.75;1.50;;;;;;;24.83;43.58;100712.25;1664727;86;21832;-56
2022/09/06 07:16:12;;;;;;;2.10;1.35;;;;;;;25.45;43.01;100710.33;1664150;86;21482;-56
2022/09/06 07:18:44;;;;;;;4.70;1.50;;;;;;;25.45;43.01;100710.33;1664764;86;20963;-56
2022/09/06 07:21:12;;;;;;;1.75;1.00;;;;;;;26.02;41.11;100705.61;1664341;86;21095;-57
2022/09/06 07:23:39;;;;;;;1.92;1.30;;;;;;;26.60;41.53;100701.82;1665140;86;21129;-58
2022/09/06 07:26:07;;;;;;;2.02;1.00;;;;;;;27.21;39.58;100701.86;1665180;86;21278;-57
2022/09/06 07:28:34;;;;;;;1.82;0.88;;;;;;;27.55;37.72;100696.39;1665186;86;21501;-56
2022/09/06 07:31:01;;;;;;;1.37;0.90;;;;;;;27.53;36.51;100697.21;1664160;86;21564;-58
2022/09/06 07:33:31;;;;;;;1.85;1.20;;;;;;;27.17;35.91;100698.95;1664959;86;21334;-63
2022/09/06 07:36:00;;;;;;;2.25;1.40;;;;;;;26.84;36.03;100694.66;1664443;86;21121;-56
2022/09/06 07:38:28;;;;;;;1.92;1.20;;;;;;;26.73;35.79;100699.83;1665084;86;21850;-56
2022/09/06 07:40:57;;;;;;;1.72;1.20;;;;;;;26.76;35.68;100695.81;1664620;86;21573;-56
2022/09/06 07:43:25;;;;;;;1.85;1.20;;;;;;;26.89;35.66;100694.60;1664964;86;21078;-55
2022/09/06 07:46:09;;;;;;;1.95;1.40;;;;;;;27.12;35.92;100697.13;1664531;86;21035;-56
2022/09/06 07:48:38;;;;;;;2.20;1.37;;;;;;;27.14;34.53;100696.83;1663536;86;21006;-57
2022/09/06 07:51:17;;;;;;;2.52;1.30;;;;;;;26.81;34.95;100693.88;1665039;86;21852;-56
2022/09/06 07:53:51;;;;;;;2.90;1.85;;;;;;;26.75;34.41;100692.88;1665118;86;21101;-55
2022/09/06 07:56:20;;;;;;;3.35;1.70;;;;;;;26.84;35.43;100689.31;1664952;86;21022;-56
2022/09/06 07:58:48;;;;;;;3.12;1.90;;;;;;;26.93;34.58;100686.30;1664423;86;21043;-57
2022/09/06 08:01:35;;;;;;;2.75;1.85;;;;;;;26.93;34.58;100686.30;1664465;86;21097;-55
2022/09/06 08:04:14;;;;;;;2.87;1.77;;;;;;;26.85;34.70;100689.56;1664768;86;21253;-55
2022/09/06 08:06:45;;;;;;;3.90;1.90;;;;;;;27.02;34.71;100684.34;1658870;86;21155;-65
2022/09/06 08:09:12;;;;;;;2.85;1.50;;;;;;;27.13;33.92;100685.88;1651703;86;22264;-55
2022/09/06 08:11:41;;;;;;;2.27;1.45;;;;;;;26.83;34.04;100677.02;1651510;86;21115;-55
2022/09/06 10:04:40;;;;;;;2.27;1.00;;;;;;;22.36;39.14;100639.17;1846275;77;26617;-56
2022/09/06 10:07:14;;;;;;;1.45;0.85;;;;;;;22.04;39.58;100638.55;1785346;79;20993;-56
2022/09/06 10:09:45;;;;;;;1.97;0.80;;;;;;;21.77;40.33;100637.19;1760129;79;21351;-63
2022/09/06 10:12:28;;;;;;;2.55;1.10;;;;;;;21.64;40.83;100634.39;1792120;79;20930;-54
2022/09/06 10:14:56;;;;;;;1.60;0.87;;;;;;;21.54;41.24;100640.37;1792610;79;21464;-64
2022/09/06 10:17:36;;;;;;;1.07;0.60;;;;;;;21.37;41.27;100631.14;1792368;79;21825;-55
2022/09/06 10:20:08;;;;;;;1.20;0.70;;;;;;;21.16;40.32;100632.40;1792841;79;21385;-54
2022/09/06 10:22:47;;;;;;;1.53;0.70;;;;;;;21.01;40.53;100641.73;1792542;79;21230;-59
2022/09/06 10:25:48;;;;;;;1.47;0.70;;;;;;;21.04;40.79;100640.45;1793052;78;21035;-65
2022/09/06 10:28:33;;;;;;;;;;;;;;;21.32;40.90;100633.67;1794771;78;20981;-56
2022/09/06 10:31:17;;;;;;;1.57;0.70;;;;;;;21.83;40.70;100625.59;1792198;79;20122;-56
2022/09/06 10:34:23;;;;;;;1.63;0.87;;;;;;;22.21;40.60;100631.86;1792363;79;20945;-58
2022/09/06 10:37:32;;;;;;;2.83;1.30;;;;;;;22.50;39.41;100625.73;1792866;79;21512;-54
2022/09/06 10:40:10;;;;;;;1.33;0.70;;;;;;;22.62;39.50;100629.57;1792492;79;20961;-55
2022/09/06 10:42:52;;;;;;;2.03;1.00;;;;;;;22.52;39.94;100635.05;1791623;79;20982;-56
2022/09/06 10:45:37;;;;;;;2.40;0.83;;;;;;;22.43;39.99;100631.80;1793019;79;21532;-56
2022/09/06 10:48:26;;;;;;;1.60;0.73;;;;;;;22.29;40.13;100635.39;1792488;79;21056;-56
2022/09/06 10:51:20;;;;;;;1.97;0.80;;;;;;;22.09;39.70;100627.47;1792471;79;21185;-56
2022/09/06 10:54:06;;;;;;;2.43;1.00;;;;;;;22.02;40.73;100629.52;1792122;79;21070;-53
2022/09/06 10:57:03;;;;;;;3.00;1.20;;;;;;;21.98;40.88;100631.07;1792482;79;20981;-59
2022/09/06 10:59:48;;;;;;;2.77;1.10;;;;;;;22.12;40.16;100623.48;1792606;79;20993;-55
2022/09/06 11:02:54;;;;;;;1.97;1.17;;;;;;;22.23;39.44;100626.55;1792080;79;21672;-60
2022/09/06 11:05:32;;;;;;;2.20;1.20;;;;;;;22.28;39.78;100620.52;1792812;79;21148;-55
2022/09/06 11:08:01;;;;;;;2.57;0.97;;;;;;;22.33;39.92;100613.91;1759914;79;21485;-54
2022/09/06 11:10:39;;;;;;;1.93;0.93;;;;;;;22.62;40.62;100616.28;1760769;79;20930;-54
2022/09/06 11:13:10;;;;;;;2.43;0.63;;;;;;;22.95;39.99;100615.20;1792771;79;20996;-65
2022/09/06 11:16:11;;;;;;;3.00;0.98;;;;;;;23.21;39.03;100612.95;1759675;80;21489;-55
2022/09/06 11:18:45;;;;;;;1.50;0.70;;;;;;;23.29;38.47;100615.12;1792173;80;21154;-59
2022/09/06 11:21:32;;;;;;;1.73;0.90;;;;;;;23.21;38.27;100614.82;1758821;80;22291;-54
2022/09/06 11:24:35;;;;;;;1.30;0.80;;;;;;;22.98;39.12;100617.34;1792109;80;20962;-54
2022/09/06 11:27:20;;;;;;;1.63;0.70;;;;;;;22.82;39.45;100613.23;1792681;80;21049;-54
2022/09/06 11:29:50;;;;;;;1.60;0.60;;;;;;;22.95;38.22;100607.22;1788931;80;21638;-56
2022/09/06 11:32:47;;;;;;;1.60;0.73;;;;;;;23.10;38.76;100595.34;1791745;79;21353;-54
2022/09/06 11:35:30;;;;;;;0.90;0.60;;;;;;;23.38;38.33;100608.00;1792618;79;21049;-65
2022/09/06 11:38:13;;;;;;;1.53;0.87;;;;;;;23.73;37.08;100601.50;1792617;80;21001;-57
2022/09/06 11:40:45;;;;;;;2.23;0.70;;;;;;;23.66;36.41;100595.63;1792791;80;21544;-55
2022/09/06 11:43:18;;;;;;;1.60;0.60;;;;;;;23.33;37.40;100596.79;1791771;78;20954;-55
2022/09/06 11:45:50;;;;;;;1.50;0.93;;;;;;;23.14;38.41;100590.31;1793177;80;21128;-55
2022/09/06 11:48:33;;;;;;;1.53;0.77;;;;;;;23.21;38.24;100591.68;1792886;80;21520;-55
2022/09/06 11:51:06;;;;;;;1.00;0.60;;;;;;;23.37;38.79;100585.89;1779978;80;21811;-55
2022/09/06 11:53:48;;;;;;;0.83;0.53;;;;;;;23.67;38.38;100582.58;1792617;80;21092;-55
2022/09/06 11:56:27;;;;;;;0.90;0.60;;;;;;;23.89;36.35;100587.69;1758138;80;21543;-57
2022/09/06 11:58:58;;;;;;;1.50;0.77;;;;;;;24.07;35.76;100581.08;1748570;80;22377;-55
2022/09/06 12:01:31;;;;;;;1.20;0.70;;;;;;;24.20;35.97;100589.06;1792082;80;20898;-55
2022/09/06 12:04:00;;;;;;;2.83;0.80;;;;;;;24.24;35.02;100591.46;1790592;78;21000;-56
2022/09/06 12:06:42;;;;;;;1.30;0.90;;;;;;;24.31;34.99;100593.33;1789282;80;21255;-65
2022/09/06 12:09:35;;;;;;;1.50;0.70;;;;;;;24.24;34.71;100582.97;1790342;80;20878;-55
2022/09/06 12:12:03;;;;;;;1.30;0.60;;;;;;;24.05;34.50;100584.52;1789498;80;21294;-59
2022/09/06 12:14:39;;;;;;;1.60;0.80;;;;;;;23.63;34.92;100586.80;1790127;80;20992;-56
2022/09/06 12:17:10;;;;;;;1.40;0.90;;;;;;;23.22;35.56;100580.51;1789363;80;21085;-66
2022/09/06 12:19:52;;;;;;;1.83;0.83;;;;;;;23.02;36.52;100583.34;1789855;80;21418;-56
2022/09/06 12:22:34;;;;;;;1.23;0.70;;;;;;;22.80;36.63;100582.11;1790312;80;21047;-55
2022/09/06 12:25:18;;;;;;;0.87;0.60;;;;;;;22.51;36.89;100587.50;1789785;80;21227;-55
2022/09/06 12:27:57;;;;;;;1.17;0.67;;;;;;;22.11;36.87;100592.16;1760493;81;20979;-55
2022/09/06 12:30:37;;;;;;;2.50;0.70;;;;;;;21.60;37.79;100592.97;1740845;82;21040;-55
2022/09/06 12:33:09;;;;;;;1.67;0.80;;;;;;;21.14;38.56;100595.02;1740819;82;20945;-58
2022/09/06 12:35:36;;;;;;;1.00;0.50;;;;;;;20.82;38.97;100592.69;1741172;82;20974;-55
2022/09/06 12:38:05;;;;;;;1.63;0.90;;;;;;;20.58;39.39;100595.52;1740858;82;21805;-62
2022/09/06 12:40:40;;;;;;;2.07;1.00;;;;;;;20.47;40.20;100591.06;1741842;82;21513;-55
2022/09/06 12:43:09;;;;;;;5.27;0.60;;;;;;;20.40;40.03;100596.51;1740784;82;21069;-56
2022/09/06 12:45:38;;;;;;;1.03;0.50;;;;;;;20.29;40.37;100599.22;1741612;82;21061;-54
2022/09/06 12:48:08;;;;;;;1.40;0.70;;;;;;;20.13;40.61;100598.95;1740436;82;21528;-56
2022/09/06 12:50:36;;;;;;;2.98;0.62;;;;;;;19.93;40.55;100595.95;1741302;82;22159;-64
2022/09/06 12:53:23;;;;;;;1.57;0.80;;;;;;;19.76;41.26;100593.77;1766007;81;20996;-56
2022/09/06 12:55:48;;;;;;;2.17;0.70;;;;;;;19.52;41.35;100605.70;1739781;81;20901;-60
2022/09/06 12:58:15;;;;;;;1.20;0.60;;;;;;;19.12;41.67;100601.15;1766342;81;21550;-55
2022/09/06 13:00:50;;;;;;;1.40;0.70;;;;;;;18.84;42.33;100606.33;1735425;81;21094;-56
2022/09/06 13:03:30;;;;;;;4.10;1.93;;;;;;;18.59;43.04;100603.33;1765590;81;21239;-55
2022/09/06 13:05:58;;;;;;;7.00;3.23;;;;;;;18.41;44.15;100610.00;1789036;79;20903;-55
2022/09/06 13:08:37;;;;;;;4.47;2.20;;;;;;;18.13;44.90;100615.38;1788838;80;21476;-56
2022/09/06 13:11:10;;;;;;;5.13;3.17;;;;;;;17.70;46.03;100620.26;1786053;78;20887;-55
2022/09/06 13:13:49;;;;;;;6.33;4.57;;;;;;;17.42;47.32;100616.00;1789412;80;21357;-58
2022/09/06 13:16:25;;;;;;;5.17;2.93;;;;;;;17.22;48.57;100619.64;1760092;80;21118;-55
2022/09/06 13:18:54;;;;;;;5.43;3.00;;;;;;;17.13;49.97;100617.02;1757832;80;21559;-55
2022/09/06 13:21:32;;;;;;;7.87;4.70;;;;;;;17.12;50.74;100615.89;1731425;80;20982;-61
2022/09/06 13:24:02;;;;;;;8.40;4.90;;;;;;;17.10;51.69;100613.48;1756805;80;21515;-55
2022/09/06 13:26:38;;;;;;;7.93;4.50;;;;;;;17.07;52.48;100606.53;1757379;80;20979;-55
2022/09/06 13:29:23;;;;;;;5.77;3.00;;;;;;;17.06;53.87;100609.67;1789204;80;21215;-56
2022/09/06 13:31:51;;;;;;;4.13;1.90;;;;;;;17.12;53.76;100611.45;1789577;80;21638;-56
2022/09/06 13:34:31;;;;;;;3.53;1.50;;;;;;;17.10;53.63;100612.17;1789014;80;20986;-61
2022/09/06 13:37:08;;;;;;;2.77;1.10;;;;;;;17.06;54.97;100610.19;1787905;80;21312;-54
2022/09/06 13:39:40;;;;;;;2.63;1.53;;;;;;;17.05;55.09;100607.24;1789353;80;21084;-55
2022/09/06 13:42:25;;;;;;;2.37;1.10;;;;;;;17.03;56.67;100610.91;1788916;79;21110;-60
2022/09/06 13:44:52;;;;;;;3.20;1.70;;;;;;;17.12;58.30;100607.98;1789075;80;20973;-57